Time;durP1;ratioP1;P1;durP2;ratioP2;P2;SDS_P1;SDS_P2;PMS_P1;PMS_P2;Temp;Humidity;BMP_temperature;BMP_pressure;BME280_temperature;BME280_humidity;BME280_pressure;Samples;Min_cycle;Max_cycle;Signal;HPM_P1;HPM_P2
2022/07/30 00:01:33;;;;;;;8.75;6.32;;;;;;;;;;4752249;30;20044;-47
2022/07/30 00:04:02;;;;;;;11.20;7.10;;;;;;;;;;4752400;30;20401;-49
2022/07/30 00:06:30;;;;;;;12.15;6.13;;;;;;;;;;4752573;30;20079;-50
2022/07/30 00:08:57;;;;;;;12.18;6.43;;;;;;;;;;4752173;30;20080;-48
2022/07/30 00:11:25;;;;;;;11.00;6.88;;;;;;;;;;4752094;30;20070;-48
2022/07/30 00:13:54;;;;;;;12.55;6.75;;;;;;;;;;4752096;30;20044;-45
2022/07/30 00:16:23;;;;;;;8.63;6.75;;;;;;;;;;4751680;30;20635;-50
2022/07/30 00:18:50;;;;;;;9.50;7.15;;;;;;;;;;4751881;30;20075;-47
2022/07/30 00:21:18;;;;;;;8.30;6.38;;;;;;;;;;4751831;30;20074;-48
2022/07/30 00:24:03;;;;;;;10.45;6.90;;;;;;;;;;4752196;30;20063;-56
2022/07/30 00:26:30;;;;;;;12.07;8.00;;;;;;;;;;4765499;30;20048;-47
2022/07/30 00:28:58;;;;;;;9.77;7.07;;;;;;;;;;4751745;30;20126;-50
2022/07/30 00:31:25;;;;;;;9.85;7.25;;;;;;;;;;4751565;30;20139;-49
2022/07/30 00:33:53;;;;;;;10.05;6.75;;;;;;;;;;4751847;30;20122;-46
2022/07/30 00:36:20;;;;;;;9.38;6.97;;;;;;;;;;4751382;30;20052;-48
2022/07/30 00:38:48;;;;;;;12.02;6.97;;;;;;;;;;4751719;30;20072;-50
2022/07/30 00:41:15;;;;;;;9.63;6.68;;;;;;;;;;4751492;30;20513;-46
2022/07/30 00:43:43;;;;;;;9.45;6.63;;;;;;;;;;4751643;30;20056;-53
2022/07/30 00:46:10;;;;;;;8.00;6.28;;;;;;;;;;4751265;30;20056;-47
2022/07/30 00:48:38;;;;;;;12.88;7.28;;;;;;;;;;4751361;30;20044;-50
2022/07/30 00:51:05;;;;;;;10.73;7.03;;;;;;;;;;4751423;30;20587;-52
2022/07/30 00:53:33;;;;;;;10.30;5.95;;;;;;;;;;4765167;30;20044;-47
2022/07/30 00:56:01;;;;;;;11.65;7.47;;;;;;;;;;4750496;30;20055;-48
2022/07/30 00:58:29;;;;;;;9.48;6.90;;;;;;;;;;4751253;30;20052;-51
2022/07/30 01:00:56;;;;;;;9.93;6.78;;;;;;;;;;4751485;30;20067;-47
2022/07/30 01:03:23;;;;;;;11.20;6.53;;;;;;;;;;4751355;30;20595;-47
2022/07/30 01:05:51;;;;;;;14.02;6.97;;;;;;;;;;4751438;30;20050;-57
2022/07/30 01:08:18;;;;;;;9.20;6.28;;;;;;;;;;4751229;30;20597;-47
2022/07/30 01:10:45;;;;;;;10.35;7.05;;;;;;;;;;4750002;30;20174;-47
2022/07/30 01:13:13;;;;;;;12.02;6.70;;;;;;;;;;4751486;30;20045;-49
2022/07/30 01:15:41;;;;;;;7.38;5.10;;;;;;;;;;4751090;30;20052;-48
2022/07/30 01:18:12;;;;;;;7.90;4.95;;;;;;;;;;4751214;30;20054;-47
2022/07/30 01:20:47;;;;;;;7.25;3.72;;;;;;;;;;4749926;30;20533;-45
2022/07/30 01:23:32;;;;;;;6.28;3.95;;;;;;;;;;4750026;30;20451;-46
2022/07/30 01:26:04;;;;;;;7.93;4.15;;;;;;;;;;4751161;30;20047;-47
2022/07/30 01:28:42;;;;;;;10.00;5.53;;;;;;;;;;4749746;30;20513;-56
2022/07/30 01:31:10;;;;;;;7.50;4.20;;;;;;;;;;4750938;30;20052;-46
2022/07/30 01:33:41;;;;;;;5.07;2.92;;;;;;;;;;4750268;30;20044;-45
2022/07/30 01:36:13;;;;;;;5.15;2.95;;;;;;;;;;4751142;30;20048;-50
2022/07/30 01:38:43;;;;;;;7.53;3.25;;;;;;;;;;4764450;30;20055;-48
2022/07/30 01:41:13;;;;;;;6.70;2.70;;;;;;;;;;4751214;30;20121;-47
2022/07/30 01:43:42;;;;;;;4.88;2.03;;;;;;;;;;4750797;30;20079;-48
2022/07/30 01:46:10;;;;;;;6.10;2.75;;;;;;;;;;4749922;30;20055;-46
2022/07/30 01:48:39;;;;;;;6.50;2.40;;;;;;;;;;4764634;30;20049;-47
2022/07/30 01:51:11;;;;;;;5.43;2.40;;;;;;;;;;4749795;30;20060;-48
2022/07/30 01:53:44;;;;;;;3.60;2.10;;;;;;;;;;4749691;30;20418;-49
2022/07/30 01:56:14;;;;;;;2.92;1.75;;;;;;;;;;4749677;30;20044;-46
2022/07/30 01:58:47;;;;;;;3.72;1.75;;;;;;;;;;4766403;30;20060;-48
2022/07/30 02:01:22;;;;;;;3.13;1.70;;;;;;;;;;4753283;30;20056;-47
2022/07/30 02:03:55;;;;;;;2.85;1.50;;;;;;;;;;4754297;30;20052;-49
2022/07/30 02:06:50;;;;;;;4.72;1.85;;;;;;;;;;4767706;30;20142;-49
2022/07/30 02:09:22;;;;;;;3.42;1.85;;;;;;;;;;4749535;30;20048;-46
2022/07/30 02:14:48;;;;;;;8.85;2.00;;;;;;;;;;4736303;30;20088;-48
2022/07/30 02:17:21;;;;;;;7.30;2.17;;;;;;;;;;4736199;30;20120;-47
2022/07/30 02:19:57;;;;;;;5.38;2.17;;;;;;;;;;4736222;30;20052;-51
2022/07/30 02:22:27;;;;;;;5.13;1.90;;;;;;;;;;4735098;30;20044;-48
2022/07/30 02:25:00;;;;;;;6.70;1.92;;;;;;;;;;4735138;30;20052;-48
2022/07/30 02:27:36;;;;;;;4.75;2.22;;;;;;;;;;4749625;30;20065;-50
2022/07/30 02:30:05;;;;;;;6.55;2.58;;;;;;;;;;4734837;30;20080;-49
2022/07/30 02:32:37;;;;;;;3.65;2.08;;;;;;;;;;4736142;30;20383;-47
2022/07/30 02:35:19;;;;;;;3.08;1.70;;;;;;;;;;4736002;30;20137;-48
2022/07/30 02:37:50;;;;;;;5.68;2.20;;;;;;;;;;4734826;30;20413;-46
2022/07/30 02:40:19;;;;;;;2.90;1.70;;;;;;;;;;4734620;30;20049;-51
2022/07/30 02:42:50;;;;;;;3.78;1.80;;;;;;;;;;4749566;30;20102;-46
2022/07/30 02:45:22;;;;;;;;;;;;;;;;;;4735336;30;20060;-51
2022/07/30 02:47:55;;;;;;;2.97;1.40;;;;;;;;;;4749426;30;19979;-46
2022/07/30 02:50:23;;;;;;;2.70;1.55;;;;;;;;;;4734375;30;20056;-46
2022/07/30 02:52:55;;;;;;;3.97;1.77;;;;;;;;;;4749248;30;20045;-47
2022/07/30 02:55:25;;;;;;;2.13;1.27;;;;;;;;;;4734561;30;20108;-47
2022/07/30 02:57:53;;;;;;;3.35;1.10;;;;;;;;;;4734765;30;20095;-45
2022/07/30 03:00:23;;;;;;;3.40;1.45;;;;;;;;;;4735714;30;20450;-49
2022/07/30 03:02:52;;;;;;;3.03;1.30;;;;;;;;;;4735613;30;20048;-47
2022/07/30 03:05:24;;;;;;;2.65;1.42;;;;;;;;;;4735195;30;20131;-47
2022/07/30 03:07:57;;;;;;;1.98;1.27;;;;;;;;;;4749149;30;20040;-52
2022/07/30 03:10:26;;;;;;;2.50;1.30;;;;;;;;;;4765754;30;20088;-49
2022/07/30 03:12:55;;;;;;;1.45;0.90;;;;;;;;;;4753206;30;20493;-47
2022/07/30 03:15:25;;;;;;;2.55;1.30;;;;;;;;;;4752844;30;20429;-47
2022/07/30 03:17:53;;;;;;;3.70;1.17;;;;;;;;;;4752955;30;20080;-46
2022/07/30 03:20:28;;;;;;;2.38;1.00;;;;;;;;;;4751434;30;20052;-46
2022/07/30 03:22:58;;;;;;;1.77;1.00;;;;;;;;;;4766456;30;20056;-48
2022/07/30 03:25:29;;;;;;;2.25;0.80;;;;;;;;;;4750850;30;20317;-46
2022/07/30 03:28:02;;;;;;;2.17;1.00;;;;;;;;;;4752764;30;20052;-45
2022/07/30 03:30:32;;;;;;;3.08;1.10;;;;;;;;;;4766239;30;20144;-46
2022/07/30 03:33:00;;;;;;;2.55;1.20;;;;;;;;;;4752848;30;20041;-47
2022/07/30 03:35:27;;;;;;;5.38;1.20;;;;;;;;;;4752623;30;20044;-48
2022/07/30 03:37:59;;;;;;;2.25;1.10;;;;;;;;;;4766400;30;20069;-50
2022/07/30 03:40:27;;;;;;;1.80;1.15;;;;;;;;;;4751510;30;20055;-48
2022/07/30 03:42:55;;;;;;;2.92;1.05;;;;;;;;;;4752561;30;20049;-46
2022/07/30 03:45:25;;;;;;;2.70;1.38;;;;;;;;;;4766205;30;20094;-49
2022/07/30 03:48:00;;;;;;;2.10;1.05;;;;;;;;;;4752470;30;20173;-48
2022/07/30 03:50:37;;;;;;;3.33;1.13;;;;;;;;;;4751110;30;20138;-45
2022/07/30 03:53:07;;;;;;;2.65;1.20;;;;;;;;;;4765802;30;20759;-48
2022/07/30 03:55:51;;;;;;;1.75;1.10;;;;;;;;;;4766108;30;20079;-46
2022/07/30 03:58:46;;;;;;;1.63;0.95;;;;;;;;;;4761246;30;20076;-47
2022/07/30 04:01:15;;;;;;;1.88;0.82;;;;;;;;;;4751759;30;20044;-47
2022/07/30 04:03:43;;;;;;;1.63;0.90;;;;;;;;;;4765869;30;20048;-48
2022/07/30 04:06:11;;;;;;;1.75;0.90;;;;;;;;;;4751255;30;20522;-50
2022/07/30 04:08:38;;;;;;;1.98;1.08;;;;;;;;;;4753408;30;20556;-46
2022/07/30 04:11:05;;;;;;;3.97;1.05;;;;;;;;;;4750891;30;20149;-53
2022/07/30 04:13:46;;;;;;;1.33;0.95;;;;;;;;;;4750749;30;20135;-49
2022/07/30 04:16:28;;;;;;;1.85;1.00;;;;;;;;;;4765663;30;20053;-48
2022/07/30 04:19:46;;;;;;;2.03;1.02;;;;;;;;;;4751075;30;20508;-50
2022/07/30 04:22:18;;;;;;;3.08;0.90;;;;;;;;;;4746420;30;20055;-46
2022/07/30 04:24:48;;;;;;;1.67;1.10;;;;;;;;;;4752015;30;20052;-45
2022/07/30 04:27:16;;;;;;;1.10;0.75;;;;;;;;;;4752082;30;20112;-50
2022/07/30 04:29:43;;;;;;;4.20;1.05;;;;;;;;;;4750648;30;20048;-47
2022/07/30 04:32:11;;;;;;;2.55;1.10;;;;;;;;;;4751752;30;20054;-48
2022/07/30 04:35:08;;;;;;;2.25;1.20;;;;;;;;;;4765603;30;20073;-48
2022/07/30 04:37:55;;;;;;;1.50;1.00;;;;;;;;;;4751559;30;20416;-51
2022/07/30 04:40:22;;;;;;;2.05;1.02;;;;;;;;;;4750383;30;20080;-46
2022/07/30 04:42:50;;;;;;;1.92;0.90;;;;;;;;;;4765121;30;20131;-50
2022/07/30 04:45:19;;;;;;;1.80;1.00;;;;;;;;;;4751167;30;20052;-48
2022/07/30 04:47:52;;;;;;;0.95;0.70;;;;;;;;;;4751744;30;20486;-46
2022/07/30 04:50:44;;;;;;;3.38;0.80;;;;;;;;;;4751188;30;20437;-51
2022/07/30 04:53:15;;;;;;;1.05;0.68;;;;;;;;;;4764944;30;20509;-48
2022/07/30 04:55:50;;;;;;;1.55;0.70;;;;;;;;;;4751713;30;20695;-46
2022/07/30 04:58:22;;;;;;;1.30;0.70;;;;;;;;;;4765206;30;20105;-48
2022/07/30 05:00:54;;;;;;;2.88;1.40;;;;;;;;;;4750990;30;20468;-51
2022/07/30 05:03:27;;;;;;;2.08;0.95;;;;;;;;;;4765118;30;20067;-51
2022/07/30 05:05:56;;;;;;;2.03;1.05;;;;;;;;;;4764797;30;20604;-48
2022/07/30 05:08:27;;;;;;;0.90;0.70;;;;;;;;;;4751182;30;20040;-48
2022/07/30 05:11:01;;;;;;;1.65;0.88;;;;;;;;;;4750206;30;20060;-51
2022/07/30 05:13:28;;;;;;;1.02;0.88;;;;;;;;;;4764767;30;20127;-51
2022/07/30 05:16:02;;;;;;;1.10;0.90;;;;;;;;;;4750038;30;20064;-49
2022/07/30 05:18:30;;;;;;;1.55;0.88;;;;;;;;;;4749837;30;20052;-51
2022/07/30 05:20:58;;;;;;;7.20;3.42;;;;;;;;;;4750177;30;20080;-51
2022/07/30 05:23:29;;;;;;;2.50;0.98;;;;;;;;;;4750018;30;20048;-52
2022/07/30 05:26:06;;;;;;;1.60;0.80;;;;;;;;;;4750229;30;20056;-54
2022/07/30 05:28:38;;;;;;;1.58;0.77;;;;;;;;;;4749857;30;20048;-46
2022/07/30 05:31:10;;;;;;;3.17;0.75;;;;;;;;;;4750002;30;20053;-46
2022/07/30 05:33:40;;;;;;;1.20;0.77;;;;;;;;;;4766579;30;20052;-48
2022/07/30 05:36:14;;;;;;;1.15;0.55;;;;;;;;;;4753476;30;20056;-47
2022/07/30 05:38:42;;;;;;;0.98;0.50;;;;;;;;;;4754508;30;20391;-48
2022/07/30 05:41:29;;;;;;;3.05;0.50;;;;;;;;;;4754399;30;20800;-47
2022/07/30 05:44:01;;;;;;;1.08;0.65;;;;;;;;;;4754469;30;20045;-51
2022/07/30 05:46:30;;;;;;;1.02;0.50;;;;;;;;;;4753263;30;20055;-53
2022/07/30 05:48:58;;;;;;;1.80;0.50;;;;;;;;;;4768128;30;20055;-53
2022/07/30 05:51:26;;;;;;;1.05;0.60;;;;;;;;;;4753203;30;20071;-49
2022/07/30 05:53:54;;;;;;;3.42;1.38;;;;;;;;;;4753203;30;20048;-51
2022/07/30 05:56:40;;;;;;;2.13;0.50;;;;;;;;;;4754253;30;20050;-47
2022/07/30 05:59:13;;;;;;;2.92;0.45;;;;;;;;;;4753034;30;20055;-48
2022/07/30 06:02:02;;;;;;;0.50;0.40;;;;;;;;;;4753085;30;20137;-52
2022/07/30 06:04:42;;;;;;;0.85;0.55;;;;;;;;;;4753001;30;20473;-50
2022/07/30 06:07:12;;;;;;;1.13;0.40;;;;;;;;;;4754254;30;20122;-49
2022/07/30 06:09:40;;;;;;;1.45;0.47;;;;;;;;;;4752999;30;20044;-50
2022/07/30 06:12:08;;;;;;;0.50;0.40;;;;;;;;;;4767427;30;20479;-53
2022/07/30 06:14:35;;;;;;;0.63;0.50;;;;;;;;;;4767451;30;20061;-48
2022/07/30 06:17:05;;;;;;;0.88;0.47;;;;;;;;;;4752396;30;20044;-49
2022/07/30 06:19:58;;;;;;;0.65;0.47;;;;;;;;;;4751493;30;20147;-50
2022/07/30 06:22:28;;;;;;;2.55;0.68;;;;;;;;;;4752797;30;20436;-51
2022/07/30 06:25:01;;;;;;;0.73;0.60;;;;;;;;;;4767256;30;20139;-52
2022/07/30 06:27:32;;;;;;;1.23;0.40;;;;;;;;;;4753091;30;20135;-48
2022/07/30 06:30:08;;;;;;;1.50;0.50;;;;;;;;;;4767513;30;20076;-50
2022/07/30 06:32:35;;;;;;;1.33;0.55;;;;;;;;;;4767187;30;20073;-49
2022/07/30 06:35:03;;;;;;;1.08;0.70;;;;;;;;;;4752436;30;20052;-49
2022/07/30 06:37:31;;;;;;;1.10;0.50;;;;;;;;;;4767270;30;20155;-55
2022/07/30 06:40:21;;;;;;;0.90;0.60;;;;;;;;;;4767149;30;20044;-47
2022/07/30 06:43:07;;;;;;;1.13;0.50;;;;;;;;;;4753795;30;20058;-48
2022/07/30 06:45:55;;;;;;;1.10;0.50;;;;;;;;;;4752173;30;20063;-48
2022/07/30 06:48:25;;;;;;;0.80;0.52;;;;;;;;;;4753456;30;20070;-50
2022/07/30 06:50:52;;;;;;;1.23;0.40;;;;;;;;;;4752354;30;20061;-46
2022/07/30 06:53:21;;;;;;;0.50;0.40;;;;;;;;;;4752551;30;20052;-49
2022/07/30 06:56:08;;;;;;;0.60;0.55;;;;;;;;;;4753434;30;20051;-48
2022/07/30 06:58:43;;;;;;;3.28;0.50;;;;;;;;;;4752255;30;20138;-51
2022/07/30 07:01:29;;;;;;;17.83;10.20;;;;;;;;;;4753375;30;20147;-54
2022/07/30 07:03:57;;;;;;;18.38;9.70;;;;;;;;;;4753328;30;20059;-50
2022/07/30 07:06:24;;;;;;;2.17;0.95;;;;;;;;;;4752067;30;20048;-50
2022/07/30 07:08:52;;;;;;;0.70;0.40;;;;;;;;;;4756305;30;20059;-50
2022/07/30 07:11:27;;;;;;;0.70;0.40;;;;;;;;;;4753108;30;20056;-50
2022/07/30 07:13:56;;;;;;;0.30;0.30;;;;;;;;;;4766686;30;20140;-52
2022/07/30 07:16:33;;;;;;;0.60;0.40;;;;;;;;;;4766424;30;20056;-46
2022/07/30 07:19:20;;;;;;;0.82;0.40;;;;;;;;;;4766737;30;20056;-48
2022/07/30 07:22:07;;;;;;;0.73;0.55;;;;;;;;;;4752925;30;20063;-51
2022/07/30 07:24:35;;;;;;;0.60;0.55;;;;;;;;;;4766206;30;20406;-50
2022/07/30 07:27:08;;;;;;;0.95;0.32;;;;;;;;;;4766460;30;20055;-48
2022/07/30 07:29:43;;;;;;;0.55;0.45;;;;;;;;;;4766332;30;20056;-51
2022/07/30 07:32:33;;;;;;;0.40;0.32;;;;;;;;;;4766000;30;20113;-47
2022/07/30 07:35:04;;;;;;;0.50;0.30;;;;;;;;;;4766129;30;20117;-46
2022/07/30 07:37:34;;;;;;;0.68;0.40;;;;;;;;;;4766056;30;20417;-53
2022/07/30 07:40:03;;;;;;;0.60;0.40;;;;;;;;;;4756618;30;20143;-52
2022/07/30 07:42:36;;;;;;;1.55;0.45;;;;;;;;;;4751343;30;20049;-47
2022/07/30 07:45:05;;;;;;;2.25;0.40;;;;;;;;;;4751613;30;20064;-48
2022/07/30 07:47:46;;;;;;;0.50;0.50;;;;;;;;;;4751112;30;20052;-46
2022/07/30 07:50:46;;;;;;;1.98;1.23;;;;;;;;;;4752657;30;20091;-45
2022/07/30 07:53:22;;;;;;;0.30;0.30;;;;;;;;;;4751542;30;20452;-49
2022/07/30 07:55:50;;;;;;;0.47;0.40;;;;;;;;;;4751371;30;20110;-46
2022/07/30 07:58:21;;;;;;;0.75;0.40;;;;;;;;;;4755467;30;20044;-42
2022/07/30 08:00:54;;;;;;;0.38;0.38;;;;;;;;;;4744186;30;20053;-48
2022/07/30 08:03:32;;;;;;;0.45;0.45;;;;;;;;;;4758204;30;20059;-50
2022/07/30 08:06:11;;;;;;;1.65;0.55;;;;;;;;;;4766077;30;20051;-47
2022/07/30 08:09:03;;;;;;;1.30;0.60;;;;;;;;;;4752185;30;20052;-47
2022/07/30 08:11:51;;;;;;;0.75;0.60;;;;;;;;;;4752103;30;20540;-51
2022/07/30 08:14:41;;;;;;;4.55;0.65;;;;;;;;;;4751859;30;20161;-48
2022/07/30 08:17:31;;;;;;;0.38;0.30;;;;;;;;;;4767185;30;20060;-48
2022/07/30 08:20:25;;;;;;;1.95;0.50;;;;;;;;;;4743915;30;20143;-49
2022/07/30 08:22:59;;;;;;;0.88;0.40;;;;;;;;;;4753590;30;20055;-48
2022/07/30 08:25:27;;;;;;;1.00;0.50;;;;;;;;;;4766822;30;20047;-51
2022/07/30 08:27:54;;;;;;;0.30;0.30;;;;;;;;;;4751943;30;20139;-52
2022/07/30 08:30:23;;;;;;;0.60;0.40;;;;;;;;;;4753629;30;20044;-47
2022/07/30 08:32:51;;;;;;;2.10;0.38;;;;;;;;;;4750414;30;20109;-46
2022/07/30 08:35:18;;;;;;;6.40;3.50;;;;;;;;;;4765253;30;20056;-53
2022/07/30 08:37:46;;;;;;;2.05;1.00;;;;;;;;;;4765318;30;20429;-50
2022/07/30 08:40:18;;;;;;;0.40;0.30;;;;;;;;;;4765051;30;20409;-51
2022/07/30 08:42:52;;;;;;;0.68;0.50;;;;;;;;;;4750787;30;20052;-46
2022/07/30 08:45:20;;;;;;;1.60;0.30;;;;;;;;;;4751789;30;20040;-45
2022/07/30 08:48:28;;;;;;;0.38;0.30;;;;;;;;;;4750256;30;20143;-45
2022/07/30 08:50:56;;;;;;;0.45;0.40;;;;;;;;;;4751174;30;20052;-47
2022/07/30 08:53:34;;;;;;;1.55;0.40;;;;;;;;;;4751389;30;20056;-51
2022/07/30 08:56:03;;;;;;;0.80;0.40;;;;;;;;;;4751406;30;20083;-48
2022/07/30 08:58:36;;;;;;;2.15;0.40;;;;;;;;;;4749895;30;20067;-52
2022/07/30 09:01:05;;;;;;;0.73;0.40;;;;;;;;;;4749967;30;20119;-48
2022/07/30 09:03:33;;;;;;;1.08;0.60;;;;;;;;;;4749993;30;20301;-49
2022/07/30 09:06:02;;;;;;;0.50;0.30;;;;;;;;;;4751230;30;20107;-46
2022/07/30 09:08:30;;;;;;;0.93;0.40;;;;;;;;;;4750999;30;20048;-45
2022/07/30 09:11:00;;;;;;;0.63;0.40;;;;;;;;;;4765099;30;20140;-46
2022/07/30 09:13:30;;;;;;;0.95;0.70;;;;;;;;;;4751365;30;20141;-51
2022/07/30 09:15:59;;;;;;;1.40;0.30;;;;;;;;;;4764538;30;20056;-47
2022/07/30 09:18:37;;;;;;;0.57;0.50;;;;;;;;;;4764910;30;20509;-51
2022/07/30 09:21:18;;;;;;;1.20;0.47;;;;;;;;;;4750000;30;20463;-49
2022/07/30 09:24:06;;;;;;;0.85;0.45;;;;;;;;;;4764942;30;20059;-47
2022/07/30 09:27:05;;;;;;;;;;;;;;;;;;4752095;30;20147;-47
2022/07/30 09:29:58;;;;;;;1.80;0.60;;;;;;;;;;4763106;30;20025;-51
2022/07/30 09:32:55;;;;;;;0.60;0.38;;;;;;;;;;4751108;30;20815;-47
2022/07/30 09:35:41;;;;;;;0.55;0.30;;;;;;;;;;4751154;30;20628;-45
2022/07/30 09:38:11;;;;;;;1.48;0.40;;;;;;;;;;4751304;30;20448;-49
2022/07/30 09:40:57;;;;;;;0.70;0.40;;;;;;;;;;4751050;30;20409;-50
2022/07/30 09:44:05;;;;;;;0.85;0.50;;;;;;;;;;4763232;30;20048;-46
2022/07/30 09:46:50;;;;;;;0.45;0.40;;;;;;;;;;4764648;30;20048;-50
2022/07/30 09:49:28;;;;;;;1.17;0.30;;;;;;;;;;4750895;30;20196;-50
2022/07/30 09:51:55;;;;;;;0.55;0.40;;;;;;;;;;4764615;30;20446;-45
2022/07/30 09:54:49;;;;;;;0.52;0.40;;;;;;;;;;4749586;30;20072;-48
2022/07/30 09:57:25;;;;;;;0.40;0.30;;;;;;;;;;4764387;30;20482;-47
2022/07/30 10:00:16;;;;;;;3.15;0.40;;;;;;;;;;4764466;30;20124;-43
2022/07/30 10:02:51;;;;;;;0.70;0.40;;;;;;;;;;4764547;30;20052;-49
2022/07/30 10:05:52;;;;;;;0.52;0.30;;;;;;;;;;4776873;29;20151;-48
2022/07/30 10:08:57;;;;;;;2.42;0.57;;;;;;;;;;4749736;30;20044;-45
2022/07/30 10:11:27;;;;;;;0.40;0.30;;;;;;;;;;4730857;30;20125;-48
2022/07/30 10:14:01;;;;;;;2.70;1.40;;;;;;;;;;4746822;30;20063;-48
2022/07/30 10:16:30;;;;;;;1.27;0.60;;;;;;;;;;4749142;30;20056;-50
2022/07/30 10:18:58;;;;;;;1.15;0.40;;;;;;;;;;4765084;30;20139;-46
2022/07/30 10:21:44;;;;;;;0.22;0.22;;;;;;;;;;4753652;30;20583;-46
2022/07/30 10:24:15;;;;;;;0.88;0.60;;;;;;;;;;4753916;30;20083;-47
2022/07/30 10:27:12;;;;;;;0.82;0.43;;;;;;;;;;4753831;30;20059;-48
2022/07/30 10:29:58;;;;;;;0.63;0.30;;;;;;;;;;4753682;30;20131;-49
2022/07/30 10:32:31;;;;;;;0.43;0.32;;;;;;;;;;4752535;30;20063;-50
2022/07/30 10:34:59;;;;;;;1.23;0.40;;;;;;;;;;4753725;30;20098;-49
2022/07/30 10:37:27;;;;;;;1.08;0.40;;;;;;;;;;4753793;30;20048;-45
2022/07/30 10:40:11;;;;;;;1.25;0.20;;;;;;;;;;4753669;30;20056;-48
2022/07/30 10:42:57;;;;;;;;;;;;;;;;;;4754002;30;20517;-49
2022/07/30 10:45:31;;;;;;;2.25;0.38;;;;;;;;;;4753500;30;20355;-49
2022/07/30 10:48:01;;;;;;;0.50;0.30;;;;;;;;;;4753738;30;20052;-47
2022/07/30 10:50:31;;;;;;;0.30;0.30;;;;;;;;;;4753474;30;20045;-47
2022/07/30 10:53:04;;;;;;;0.85;0.20;;;;;;;;;;4753366;30;20075;-51
2022/07/30 10:55:34;;;;;;;0.22;0.22;;;;;;;;;;4753430;30;20045;-48
2022/07/30 10:58:14;;;;;;;0.50;0.40;;;;;;;;;;4753214;30;20044;-54
2022/07/30 11:00:53;;;;;;;2.33;0.30;;;;;;;;;;4753116;30;20048;-52
2022/07/30 11:03:30;;;;;;;8.45;4.72;;;;;;;;;;4753382;30;20079;-48
2022/07/30 11:06:16;;;;;;;1.65;0.95;;;;;;;;;;4753169;30;20048;-48
2022/07/30 11:08:50;;;;;;;1.20;0.40;;;;;;;;;;4754084;30;20056;-51
2022/07/30 11:11:24;;;;;;;0.30;0.30;;;;;;;;;;4753397;30;20055;-46
2022/07/30 11:14:11;;;;;;;0.45;0.38;;;;;;;;;;4753292;30;20056;-47
2022/07/30 11:16:38;;;;;;;0.35;0.22;;;;;;;;;;4752885;30;20056;-45
2022/07/30 11:19:16;;;;;;;0.70;0.20;;;;;;;;;;4753222;30;20123;-53
2022/07/30 11:22:24;;;;;;;0.50;0.28;;;;;;;;;;4752969;30;20102;-47
2022/07/30 11:24:52;;;;;;;0.35;0.30;;;;;;;;;;4753112;30;20413;-48
2022/07/30 11:27:47;;;;;;;0.45;0.30;;;;;;;;;;4753108;30;20056;-50
2022/07/30 11:30:14;;;;;;;1.10;0.50;;;;;;;;;;4752482;30;20102;-52
2022/07/30 11:32:45;;;;;;;0.40;0.30;;;;;;;;;;4752421;30;20044;-47
2022/07/30 11:35:19;;;;;;;6.82;3.08;;;;;;;;;;4752811;30;20147;-49
2022/07/30 11:38:14;;;;;;;1.35;0.60;;;;;;;;;;4752912;30;20063;-50
2022/07/30 11:40:47;;;;;;;0.82;0.40;;;;;;;;;;4752431;30;20084;-51
2022/07/30 11:43:17;;;;;;;0.47;0.22;;;;;;;;;;4752900;30;20122;-46
2022/07/30 11:45:49;;;;;;;0.30;0.30;;;;;;;;;;4752370;30;20060;-46
2022/07/30 11:48:18;;;;;;;0.20;0.20;;;;;;;;;;4752646;30;20056;-51
2022/07/30 11:50:46;;;;;;;0.80;0.30;;;;;;;;;;4752477;30;20059;-50
2022/07/30 11:53:19;;;;;;;0.38;0.20;;;;;;;;;;4752547;30;20573;-44
2022/07/30 11:55:55;;;;;;;1.58;0.30;;;;;;;;;;4752548;30;20068;-49
2022/07/30 11:58:28;;;;;;;0.60;0.30;;;;;;;;;;4752292;30;20656;-47
2022/07/30 12:00:59;;;;;;;0.77;0.20;;;;;;;;;;4752551;30;20044;-46
2022/07/30 12:03:30;;;;;;;0.73;0.20;;;;;;;;;;4752159;30;20067;-48
2022/07/30 12:06:05;;;;;;;0.57;0.32;;;;;;;;;;4752359;30;20083;-50
2022/07/30 12:08:43;;;;;;;0.43;0.30;;;;;;;;;;4752010;30;20484;-44
2022/07/30 12:11:12;;;;;;;0.65;0.38;;;;;;;;;;4752102;30;20048;-47
2022/07/30 12:13:42;;;;;;;0.40;0.30;;;;;;;;;;4752015;30;20449;-46
2022/07/30 12:16:16;;;;;;;0.75;0.30;;;;;;;;;;4751709;30;20510;-56
2022/07/30 12:18:45;;;;;;;1.27;0.30;;;;;;;;;;4751802;30;20117;-47
2022/07/30 12:21:17;;;;;;;0.60;0.32;;;;;;;;;;4752051;30;20494;-47
2022/07/30 12:23:58;;;;;;;1.58;0.30;;;;;;;;;;4751826;30;20079;-50
2022/07/30 12:26:28;;;;;;;0.60;0.28;;;;;;;;;;4752007;30;20056;-47
2022/07/30 12:29:05;;;;;;;0.45;0.30;;;;;;;;;;4752569;30;20044;-46
2022/07/30 12:31:38;;;;;;;4.70;0.30;;;;;;;;;;4751531;30;20047;-47
2022/07/30 12:34:23;;;;;;;0.30;0.30;;;;;;;;;;4751815;30;20044;-50
2022/07/30 12:36:51;;;;;;;0.80;0.40;;;;;;;;;;4752184;30;20143;-51
2022/07/30 12:39:21;;;;;;;0.20;0.20;;;;;;;;;;4751517;30;20044;-50
2022/07/30 12:41:52;;;;;;;0.50;0.40;;;;;;;;;;4751984;30;20048;-49
2022/07/30 12:44:40;;;;;;;0.98;0.30;;;;;;;;;;4750996;30;20040;-50
2022/07/30 12:47:25;;;;;;;1.15;0.35;;;;;;;;;;4751438;30;20115;-48
2022/07/30 12:49:54;;;;;;;0.45;0.30;;;;;;;;;;4751866;30;20056;-46
2022/07/30 12:52:32;;;;;;;1.65;0.40;;;;;;;;;;4751727;30;20080;-48
2022/07/30 12:55:07;;;;;;;2.47;0.50;;;;;;;;;;4751589;30;20056;-52
2022/07/30 12:57:51;;;;;;;0.52;0.40;;;;;;;;;;4751604;30;20053;-47
2022/07/30 13:00:21;;;;;;;0.60;0.38;;;;;;;;;;4751521;30;20054;-46
2022/07/30 13:02:48;;;;;;;23.30;11.75;;;;;;;;;;4751588;30;20051;-49
2022/07/30 13:05:15;;;;;;;2.95;1.55;;;;;;;;;;4751310;30;20055;-47
2022/07/30 13:07:57;;;;;;;0.57;0.30;;;;;;;;;;4751565;30;20051;-48
2022/07/30 13:10:25;;;;;;;2.47;0.25;;;;;;;;;;4733944;30;20110;-50
2022/07/30 13:12:57;;;;;;;2.58;0.30;;;;;;;;;;4733637;30;20059;-50
2022/07/30 13:15:25;;;;;;;0.30;0.30;;;;;;;;;;4733683;30;20061;-47
2022/07/30 13:17:52;;;;;;;0.50;0.40;;;;;;;;;;4734037;30;20052;-48
2022/07/30 13:20:20;;;;;;;0.40;0.30;;;;;;;;;;4733878;30;20106;-47
2022/07/30 13:22:48;;;;;;;0.50;0.28;;;;;;;;;;4733561;30;20045;-50
2022/07/30 13:25:15;;;;;;;0.30;0.30;;;;;;;;;;4733883;30;20123;-48
2022/07/30 13:27:42;;;;;;;1.13;0.30;;;;;;;;;;4733609;30;20052;-51
2022/07/30 13:30:10;;;;;;;2.33;0.30;;;;;;;;;;4733644;30;20041;-47
2022/07/30 13:32:37;;;;;;;1.02;0.50;;;;;;;;;;4733563;30;20106;-48
2022/07/30 13:35:05;;;;;;;1.05;0.30;;;;;;;;;;4733308;30;20049;-54
2022/07/30 13:37:32;;;;;;;0.77;0.30;;;;;;;;;;4733595;30;20125;-49
2022/07/30 13:40:05;;;;;;;2.50;0.40;;;;;;;;;;4733244;30;20510;-49
2022/07/30 13:42:32;;;;;;;0.63;0.30;;;;;;;;;;4733423;30;20106;-50
2022/07/30 13:45:02;;;;;;;1.75;0.30;;;;;;;;;;4733683;30;20413;-50
2022/07/30 13:47:30;;;;;;;0.30;0.20;;;;;;;;;;4733862;30;20053;-50
2022/07/30 13:49:58;;;;;;;0.55;0.20;;;;;;;;;;4733598;30;20051;-51
2022/07/30 13:52:26;;;;;;;0.63;0.30;;;;;;;;;;4733323;30;20059;-50
2022/07/30 13:54:53;;;;;;;16.63;9.30;;;;;;;;;;4735788;30;20136;-53
2022/07/30 13:57:20;;;;;;;2.35;1.15;;;;;;;;;;4737068;30;20064;-48
2022/07/30 13:59:48;;;;;;;3.40;0.40;;;;;;;;;;4736523;30;20387;-47
2022/07/30 14:02:15;;;;;;;1.42;0.30;;;;;;;;;;4751094;30;20052;-47
2022/07/30 14:04:42;;;;;;;2.05;0.30;;;;;;;;;;4754390;30;20056;-47
2022/07/30 14:07:09;;;;;;;0.30;0.30;;;;;;;;;;4754389;30;20109;-46
2022/07/30 14:09:37;;;;;;;1.02;0.47;;;;;;;;;;4767409;30;20497;-50
2022/07/30 14:12:14;;;;;;;0.77;0.40;;;;;;;;;;4754077;30;20056;-46
2022/07/30 14:14:42;;;;;;;0.40;0.40;;;;;;;;;;4753935;30;20509;-44
2022/07/30 14:17:09;;;;;;;0.50;0.30;;;;;;;;;;4754833;30;20055;-47
2022/07/30 14:19:36;;;;;;;0.65;0.35;;;;;;;;;;4754175;30;20048;-49
2022/07/30 14:22:03;;;;;;;0.65;0.22;;;;;;;;;;4754054;30;20048;-47
2022/07/30 14:24:31;;;;;;;0.45;0.30;;;;;;;;;;4753910;30;20052;-47
2022/07/30 14:26:58;;;;;;;0.95;0.30;;;;;;;;;;4753955;30;20047;-48
2022/07/30 14:29:26;;;;;;;1.42;0.30;;;;;;;;;;4754183;30;20051;-47
2022/07/30 14:31:54;;;;;;;9.05;3.40;;;;;;;;;;4753853;30;20455;-49
2022/07/30 14:34:21;;;;;;;0.73;0.45;;;;;;;;;;4754189;30;20059;-47
2022/07/30 14:36:49;;;;;;;2.35;0.38;;;;;;;;;;4753778;30;20473;-50
2022/07/30 14:39:16;;;;;;;0.50;0.32;;;;;;;;;;4753693;30;20456;-48
2022/07/30 14:41:44;;;;;;;1.58;0.30;;;;;;;;;;4753897;30;20052;-46
2022/07/30 14:44:12;;;;;;;0.20;0.20;;;;;;;;;;4753552;30;20048;-49
2022/07/30 14:46:42;;;;;;;1.45;0.30;;;;;;;;;;4753622;30;20052;-49
2022/07/30 14:49:19;;;;;;;3.10;0.32;;;;;;;;;;4753478;30;20045;-48
2022/07/30 14:51:49;;;;;;;0.52;0.40;;;;;;;;;;4753616;30;20040;-47
2022/07/30 14:54:16;;;;;;;4.05;0.75;;;;;;;;;;4753451;30;20056;-50
2022/07/30 14:56:44;;;;;;;0.50;0.45;;;;;;;;;;4753473;30;20063;-46
2022/07/30 14:59:11;;;;;;;0.88;0.30;;;;;;;;;;4753626;30;20417;-55
2022/07/30 15:01:40;;;;;;;2.20;0.60;;;;;;;;;;4753365;30;20056;-48
2022/07/30 15:04:11;;;;;;;1.10;0.30;;;;;;;;;;4753301;30;20135;-50
2022/07/30 15:06:40;;;;;;;2.25;0.40;;;;;;;;;;4752461;30;20068;-46
2022/07/30 15:09:08;;;;;;;1.48;0.30;;;;;;;;;;4752098;30;20448;-53
2022/07/30 15:11:36;;;;;;;0.40;0.30;;;;;;;;;;4753191;30;20060;-51
2022/07/30 15:14:25;;;;;;;0.43;0.40;;;;;;;;;;4752396;30;20455;-48
2022/07/30 15:16:54;;;;;;;0.88;0.40;;;;;;;;;;4752696;30;20048;-54
2022/07/30 15:19:29;;;;;;;0.68;0.40;;;;;;;;;;4752256;30;20071;-50
2022/07/30 15:21:57;;;;;;;0.43;0.30;;;;;;;;;;4753144;30;20051;-48
2022/07/30 15:24:25;;;;;;;2.03;0.45;;;;;;;;;;4753234;30;20044;-50